Carbondale, CO

9:28 PM MDT on August 28, 2014 (GMT -0600)
Spring Park Ridge | Change Station
CLOSE
Current Station
Personal Weather Station
Location: Carbondale, CO
Elevation: 7628 ft
Nearby Weather Stations

Elev 7628 ft 39.45 °N, 107.12 °W | Updated 9 minutes ago

Mostly Cloudy
Mostly Cloudy
51.5 °F
Feels Like 51.5 °F
N
0.0
Wind Variable Wind from East
Gusts 0.0 mph

Today
High -- | Low -- °F
--% Chance of Precip.
Yesterday
High -- | Low -- °F
Precip. -- in
6:33 AM 7:45 PM
Waxing Crescent, 11% visible
Pressure 30.29 in
Visibility 10.0 miles
Clouds Few 7000 ft
Dew Point 47 °F
Humidity 85%
Rainfall 0.07 in
Snow Depth Not available.
UV 0 out of 12
Pollen 9.10 out of 12
Air Quality Not available.
Flu Activity Not available.
METAR KEGE 290315Z AUTO 07006KT 10SM FEW070 14/09 A3029 RMK AO1

More Conditions Fewer Conditions

Pressure 30.29 in
Visibility 10.0 miles
Clouds Few 7000 ft
Dew Point 47 °F
Humidity 85%
Rainfall 0.07 in
Snow Depth Not available.
UV 0 out of 12
Pollen 9.10 out of 12
Air Quality Not available.
Flu Activity Not available.
METAR KEGE 290315Z AUTO 07006KT 10SM FEW070 14/09 A3029 RMK AO1

More Conditions Fewer Conditions

10-Day Weather Forecast

Almanac

Astronomy

Aug. 28, 2014 Rise Set
Actual Time 6:33 AM MDT 7:45 PM MDT
Civil Twilight 6:05 AM MDT 8:13 PM MDT
Nautical Twilight 5:32 AM MDT 8:46 PM MDT
Astronomical Twilight 4:57 AM MDT 9:20 PM MDT
Moon 9:27 AM MDT (8/28) 9:12 PM MDT (8/28)
Length of Visible Light 14h 07m
Length of Day
13h 12m
Tomorrow will be 2m 27s shorter.
Waxing Crescent, 11% of the Moon is Illuminated
Today
Waxing Crescent
Sep 2
First Quarter
Sep 8
Full
Sep 15
Last Quarter
Sep 24
New

Today's Extremes

State Highs State Lows

Community

WunderPhotos

Upload Photos

1,748,151 photos uploaded!

Nearby

Snow Depth

Station Depth Elevation
Bison Lake 0 in 10880 ft
North Lost Trail 0 in 9200 ft
Kiln 0 in 9600 ft
Schofield Pass 0 in 10700 ft
Ivanhoe 0 in 10400 ft

Earthquake Activity

City Distance Mag. Time & Date
No recent earthquake activity has been reported nearby.
Minimum magnitude displayed is 2.5.

Coastal Water Temperatures

Place Temperature
No Stations Reporting

Nearby Weather Stations